Time;durP1;ratioP1;P1;durP2;ratioP2;P2;SDS_P1;SDS_P2;PMS_P1;PMS_P2;Temp;Humidity;BMP_temperature;BMP_pressure;BME280_temperature;BME280_humidity;BME280_pressure;Samples;Min_cycle;Max_cycle;Signal;HPM_P1;HPM_P2
2022/05/06 00:01:22;;;;;;;3.47;2.80;;;20.50;99.90;;;;;;4176009;28;20273;-76
2022/05/06 00:03:24;;;;;;;4.07;3.10;;;20.50;99.90;;;;;;4175938;28;20215;-76
2022/05/06 00:05:26;;;;;;;3.42;3.05;;;20.40;99.90;;;;;;4176051;28;20243;-76
2022/05/06 00:07:29;;;;;;;4.40;3.15;;;20.50;99.90;;;;;;4175057;28;20228;-76
2022/05/06 00:09:31;;;;;;;3.42;3.13;;;20.40;99.90;;;;;;4176425;28;20647;-76
2022/05/06 00:11:34;;;;;;;4.60;3.30;;;20.40;99.90;;;;;;4175179;28;20254;-76
2022/05/06 00:13:37;;;;;;;3.97;2.83;;;20.40;99.90;;;;;;4174901;28;20281;-76
2022/05/06 00:15:40;;;;;;;5.32;2.72;;;20.40;99.90;;;;;;4175713;28;20556;-76
2022/05/06 00:17:42;;;;;;;3.65;2.60;;;20.40;99.90;;;;;;4175643;28;20219;-76
2022/05/06 00:19:44;;;;;;;4.07;3.00;;;20.40;99.90;;;;;;4176000;28;20247;-76
2022/05/06 00:21:47;;;;;;;3.35;2.80;;;20.40;99.90;;;;;;4175839;28;20576;-76
2022/05/06 00:23:49;;;;;;;3.35;2.80;;;20.40;99.90;;;;;;4175864;28;20313;-76
2022/05/06 00:25:52;;;;;;;3.00;2.70;;;20.40;99.90;;;;;;4175952;28;20277;-76
2022/05/06 00:27:55;;;;;;;3.95;3.08;;;20.40;99.90;;;;;;4175202;28;20285;-76
2022/05/06 00:30:01;;;;;;;4.03;2.72;;;20.40;99.90;;;;;;4175601;28;20298;-76
2022/05/06 00:32:04;;;;;;;5.47;3.10;;;20.40;99.90;;;;;;4175316;28;20219;-76
2022/05/06 00:34:06;;;;;;;4.53;3.10;;;20.40;99.90;;;;;;4175212;28;20305;-77
2022/05/06 00:36:08;;;;;;;3.28;2.80;;;20.40;99.90;;;;;;4175755;28;20228;-76
2022/05/06 00:38:11;;;;;;;4.75;3.45;;;20.40;99.90;;;;;;4176144;28;20220;-76
2022/05/06 00:40:14;;;;;;;3.83;3.17;;;20.30;99.90;;;;;;4176209;28;20235;-76
2022/05/06 00:42:17;;;;;;;4.40;3.05;;;20.40;99.90;;;;;;4175795;28;20216;-76
2022/05/06 00:44:19;;;;;;;4.60;2.95;;;20.40;99.90;;;;;;4175869;28;20568;-76
2022/05/06 00:46:24;;;;;;;4.43;3.10;;;20.40;99.90;;;;;;4175898;28;20278;-76
2022/05/06 00:48:28;;;;;;;5.45;3.00;;;20.40;99.90;;;;;;4175758;28;20958;-76
2022/05/06 00:50:32;;;;;;;3.22;2.92;;;20.40;99.90;;;;;;4176087;28;20669;-76
2022/05/06 00:52:34;;;;;;;4.13;2.80;;;20.40;99.90;;;;;;4176032;28;20223;-76
2022/05/06 00:54:39;;;;;;;4.00;3.28;;;20.30;99.90;;;;;;4175036;28;20231;-76
2022/05/06 00:56:41;;;;;;;4.47;3.42;;;20.40;99.90;;;;;;4176348;28;20260;-76
2022/05/06 00:58:44;;;;;;;5.00;3.40;;;20.40;99.90;;;;;;4175905;28;20273;-76
2022/05/06 01:00:47;;;;;;;4.63;3.75;;;20.30;99.90;;;;;;4172668;28;20216;-76
2022/05/06 01:02:51;;;;;;;4.07;3.40;;;20.40;99.90;;;;;;4175214;28;20211;-76
2022/05/06 01:04:53;;;;;;;4.95;3.38;;;20.40;99.90;;;;;;4175532;28;20711;-76
2022/05/06 01:06:55;;;;;;;3.70;3.28;;;20.30;99.90;;;;;;4176467;28;20245;-76
2022/05/06 01:08:58;;;;;;;4.50;3.67;;;20.30;99.90;;;;;;4176215;28;20273;-76
2022/05/06 01:11:00;;;;;;;4.85;3.50;;;20.30;99.90;;;;;;4176405;28;20212;-76
2022/05/06 01:13:02;;;;;;;4.90;3.28;;;20.40;99.90;;;;;;4177020;28;20224;-76
2022/05/06 01:15:18;;;;;;;3.85;2.88;;;20.40;99.90;;;;;;4176064;28;20220;-76
2022/05/06 01:17:22;;;;;;;3.47;2.95;;;20.30;99.90;;;;;;4176116;28;20265;-76
2022/05/06 01:19:25;;;;;;;3.75;2.72;;;20.30;99.90;;;;;;4175919;28;20247;-76
2022/05/06 01:21:32;;;;;;;3.88;3.03;;;20.30;99.90;;;;;;4176215;28;20286;-76
2022/05/06 01:23:37;;;;;;;3.08;2.78;;;20.30;99.90;;;;;;4176136;28;20216;-76
2022/05/06 01:25:40;;;;;;;4.22;3.72;;;20.30;99.90;;;;;;4175471;28;20269;-76
2022/05/06 01:27:47;;;;;;;4.57;3.22;;;20.30;99.90;;;;;;4176256;28;20292;-76
2022/05/06 01:29:52;;;;;;;4.00;3.20;;;20.30;99.90;;;;;;4176052;28;20224;-76
2022/05/06 01:31:55;;;;;;;4.47;3.20;;;20.30;99.90;;;;;;4176248;28;20305;-76
2022/05/06 01:33:57;;;;;;;4.60;3.20;;;20.30;99.90;;;;;;4175847;28;20277;-76
2022/05/06 01:36:03;;;;;;;3.47;3.17;;;20.30;99.90;;;;;;4176269;28;20223;-76
2022/05/06 01:38:07;;;;;;;4.10;3.05;;;20.30;99.90;;;;;;4176230;28;20231;-76
2022/05/06 01:40:15;;;;;;;3.95;3.50;;;20.30;99.90;;;;;;4173850;28;20299;-76
2022/05/06 01:42:21;;;;;;;4.40;3.35;;;20.30;99.90;;;;;;4176062;28;20220;-76
2022/05/06 01:44:27;;;;;;;3.22;2.92;;;20.30;99.90;;;;;;4176225;28;21505;-76
2022/05/06 01:46:30;;;;;;;3.80;3.17;;;20.30;99.90;;;;;;4176169;28;20281;-76
2022/05/06 01:48:35;;;;;;;3.42;3.13;;;20.20;99.90;;;;;;4176067;28;20676;-76
2022/05/06 01:50:39;;;;;;;3.70;3.10;;;20.30;99.90;;;;;;4176470;28;20224;-76
2022/05/06 01:52:42;;;;;;;4.65;3.53;;;20.30;99.90;;;;;;4175149;28;20269;-76
2022/05/06 01:54:44;;;;;;;3.97;3.10;;;20.30;99.90;;;;;;4175563;28;20257;-76
2022/05/06 01:56:49;;;;;;;3.70;3.20;;;20.20;99.90;;;;;;4175045;28;20274;-76
2022/05/06 01:58:51;;;;;;;3.25;2.90;;;20.20;99.90;;;;;;4176210;28;20266;-76
2022/05/06 02:00:53;;;;;;;3.30;3.00;;;20.20;99.90;;;;;;4175709;28;20766;-76
2022/05/06 02:02:56;;;;;;;5.43;2.88;;;20.30;99.90;;;;;;4176061;28;20285;-76
2022/05/06 02:07:18;;;;;;;3.97;2.92;;;20.30;99.90;;;;;;4175832;28;20584;-76
2022/05/06 02:09:21;;;;;;;3.72;3.03;;;20.20;99.90;;;;;;4175480;28;20289;-76
2022/05/06 02:11:23;;;;;;;3.33;2.95;;;20.20;99.90;;;;;;4175838;28;20227;-76
2022/05/06 02:13:27;;;;;;;3.90;3.25;;;20.20;99.90;;;;;;4176320;28;20224;-76
2022/05/06 02:15:29;;;;;;;5.43;3.22;;;20.20;99.90;;;;;;4176178;28;20580;-76
2022/05/06 02:17:32;;;;;;;3.08;2.78;;;20.20;99.90;;;;;;4175311;28;20624;-76
2022/05/06 02:19:34;;;;;;;3.47;3.08;;;20.20;99.90;;;;;;4175444;28;20273;-76
2022/05/06 02:21:36;;;;;;;5.13;3.17;;;20.20;99.90;;;;;;4175676;28;20286;-76
2022/05/06 02:23:38;;;;;;;3.58;3.22;;;20.20;99.90;;;;;;4173307;28;20220;-76
2022/05/06 02:25:42;;;;;;;4.85;3.75;;;20.20;99.90;;;;;;4175514;28;20212;-76
2022/05/06 02:27:44;;;;;;;3.85;3.08;;;20.20;99.90;;;;;;4175488;28;20636;-76
2022/05/06 02:34:25;;;;;;;3.67;3.17;;;20.20;99.90;;;;;;4176283;28;21274;-76
2022/05/06 02:36:27;;;;;;;4.68;3.50;;;20.20;99.90;;;;;;4176385;28;20969;-76
2022/05/06 02:38:30;;;;;;;3.15;2.85;;;20.20;99.90;;;;;;4178721;28;20293;-76
2022/05/06 02:40:32;;;;;;;3.67;3.00;;;20.20;99.90;;;;;;4177670;28;20236;-76
2022/05/06 02:42:35;;;;;;;3.53;3.22;;;20.20;99.90;;;;;;4178143;28;20219;-76
2022/05/06 02:44:37;;;;;;;3.72;3.20;;;20.20;99.90;;;;;;4177464;28;20228;-76
2022/05/06 02:46:41;;;;;;;3.58;3.15;;;20.20;99.90;;;;;;4178402;28;20277;-76
2022/05/06 02:48:43;;;;;;;3.50;3.20;;;20.10;99.90;;;;;;4178420;28;20708;-76
2022/05/06 02:50:47;;;;;;;3.90;3.20;;;20.20;99.90;;;;;;4177956;28;20278;-76
2022/05/06 02:52:49;;;;;;;3.85;3.55;;;20.20;99.90;;;;;;4176646;28;20219;-76
2022/05/06 02:54:51;;;;;;;4.15;2.97;;;20.10;99.90;;;;;;4178074;28;20220;-76
2022/05/06 02:56:56;;;;;;;3.67;3.05;;;20.10;99.90;;;;;;4178175;28;20619;-76
2022/05/06 02:58:58;;;;;;;4.10;3.25;;;20.20;99.90;;;;;;4178282;28;20219;-76
2022/05/06 03:01:00;;;;;;;3.45;3.15;;;20.10;99.90;;;;;;4177452;28;20377;-76
2022/05/06 03:03:04;;;;;;;3.83;3.17;;;20.10;99.90;;;;;;4176851;28;20273;-76
2022/05/06 03:05:08;;;;;;;5.22;3.20;;;20.10;99.90;;;;;;4178093;28;20761;-76
2022/05/06 03:07:10;;;;;;;3.78;3.47;;;20.10;99.90;;;;;;4177685;28;20220;-76
2022/05/06 03:09:13;;;;;;;3.53;3.22;;;20.10;99.90;;;;;;4178063;28;20219;-76
2022/05/06 03:11:15;;;;;;;3.60;3.05;;;20.10;99.90;;;;;;4177898;28;20224;-76
2022/05/06 03:13:17;;;;;;;3.58;3.28;;;20.10;99.90;;;;;;4178292;28;20215;-76
2022/05/06 03:15:20;;;;;;;3.47;3.15;;;20.10;99.90;;;;;;4176232;28;20273;-76
2022/05/06 03:17:22;;;;;;;3.53;3.22;;;20.10;99.90;;;;;;4176503;28;20224;-76
2022/05/06 03:19:27;;;;;;;4.65;3.20;;;20.10;99.90;;;;;;4174183;28;20265;-76
2022/05/06 03:21:29;;;;;;;3.50;3.17;;;20.10;99.90;;;;;;4175671;28;20248;-76
2022/05/06 03:23:33;;;;;;;3.28;2.97;;;20.10;99.90;;;;;;4176951;28;20638;-76
2022/05/06 03:25:35;;;;;;;3.03;2.83;;;20.10;99.90;;;;;;4176621;28;20633;-77
2022/05/06 03:29:58;;;;;;;3.05;2.53;;;20.10;99.90;;;;;;4177101;28;21150;-76
2022/05/06 03:32:00;;;;;;;3.10;2.80;;;20.10;99.90;;;;;;4175839;28;20269;-76
2022/05/06 03:34:03;;;;;;;3.67;3.10;;;20.10;99.90;;;;;;4176325;28;20216;-76
2022/05/06 03:36:09;;;;;;;3.83;2.80;;;20.10;99.90;;;;;;4176067;28;20289;-76
2022/05/06 03:38:12;;;;;;;3.50;3.20;;;20.10;99.90;;;;;;4175620;28;20293;-76
2022/05/06 03:40:15;;;;;;;3.20;2.90;;;20.10;99.90;;;;;;4175855;28;20274;-76
2022/05/06 03:42:18;;;;;;;3.20;2.92;;;20.00;99.90;;;;;;4176207;28;20265;-76
2022/05/06 03:44:20;;;;;;;3.70;3.03;;;20.00;99.90;;;;;;4176152;28;20246;-76
2022/05/06 03:46:23;;;;;;;3.22;2.92;;;20.00;99.90;;;;;;4175921;28;20228;-76
2022/05/06 03:48:26;;;;;;;3.55;2.88;;;20.00;99.90;;;;;;4176057;28;20680;-76
2022/05/06 03:52:50;;;;;;;4.00;3.45;;;20.00;99.90;;;;;;4175606;28;20211;-76
2022/05/06 03:54:54;;;;;;;3.58;3.28;;;20.00;99.90;;;;;;4175200;28;20220;-76
2022/05/06 03:56:56;;;;;;;3.40;3.10;;;20.10;99.90;;;;;;4175905;28;20223;-76
2022/05/06 03:58:58;;;;;;;3.83;3.42;;;20.10;99.90;;;;;;4175864;28;20231;-76
2022/05/06 04:01:01;;;;;;;3.45;3.15;;;20.00;99.90;;;;;;4175426;28;20235;-76
2022/05/06 04:03:03;;;;;;;3.60;3.30;;;20.00;99.90;;;;;;4175825;28;20220;-76
2022/05/06 04:05:06;;;;;;;3.60;3.30;;;20.00;99.90;;;;;;4175851;28;20297;-76
2022/05/06 04:07:09;;;;;;;3.30;3.00;;;20.00;99.90;;;;;;4176332;28;20285;-76
2022/05/06 04:09:12;;;;;;;3.75;3.40;;;20.00;99.90;;;;;;4176160;28;20273;-76
2022/05/06 04:11:15;;;;;;;4.10;3.70;;;20.00;99.90;;;;;;4176757;28;20220;-76
2022/05/06 04:13:18;;;;;;;3.17;2.95;;;19.90;99.90;;;;;;4175930;28;20357;-76
2022/05/06 04:15:21;;;;;;;3.47;3.17;;;19.90;99.90;;;;;;4176544;28;20817;-76
2022/05/06 04:17:23;;;;;;;3.38;3.08;;;20.00;99.90;;;;;;4176209;28;20219;-76
2022/05/06 04:19:25;;;;;;;3.72;3.42;;;20.00;99.90;;;;;;4176249;28;20250;-76
2022/05/06 04:23:46;;;;;;;3.38;3.08;;;20.00;99.90;;;;;;4176296;28;20203;-76
2022/05/06 04:25:50;;;;;;;3.10;2.90;;;20.00;99.90;;;;;;4175453;28;20216;-76
2022/05/06 04:27:53;;;;;;;3.40;3.10;;;20.00;99.90;;;;;;4175626;28;20625;-76
2022/05/06 04:29:55;;;;;;;3.85;3.47;;;19.90;99.90;;;;;;4175777;28;20231;-76
2022/05/06 04:32:00;;;;;;;3.45;3.15;;;19.90;99.90;;;;;;4175098;28;20265;-76
2022/05/06 04:34:02;;;;;;;2.95;2.70;;;20.00;99.90;;;;;;4176013;28;20269;-76
2022/05/06 04:36:05;;;;;;;3.47;3.13;;;20.00;99.90;;;;;;4175435;28;20227;-76
2022/05/06 04:38:07;;;;;;;3.03;2.72;;;20.00;99.90;;;;;;4175126;28;20224;-76
2022/05/06 04:40:11;;;;;;;3.40;3.10;;;20.00;99.90;;;;;;4175391;28;20271;-76
2022/05/06 04:42:15;;;;;;;2.70;2.50;;;19.90;99.90;;;;;;4175655;28;20646;-76
2022/05/06 04:44:18;;;;;;;3.10;2.80;;;19.90;99.90;;;;;;4175277;28;20223;-76
2022/05/06 04:46:20;;;;;;;3.13;2.90;;;20.00;99.90;;;;;;4175468;28;20630;-76
2022/05/06 04:48:22;;;;;;;3.10;2.90;;;20.00;99.90;;;;;;4175708;28;20285;-76
2022/05/06 04:50:25;;;;;;;2.75;2.55;;;19.90;99.90;;;;;;4175750;28;20232;-77
2022/05/06 04:52:27;;;;;;;3.13;2.90;;;20.00;99.90;;;;;;4175456;28;20224;-76
2022/05/06 04:54:30;;;;;;;3.25;2.95;;;19.90;99.90;;;;;;4176157;28;20223;-76
2022/05/06 04:56:32;;;;;;;3.47;3.00;;;19.90;99.90;;;;;;4175482;28;20273;-76
2022/05/06 04:58:36;;;;;;;2.97;2.78;;;19.90;99.90;;;;;;4175028;28;20240;-76
2022/05/06 05:00:38;;;;;;;3.58;2.92;;;19.90;99.90;;;;;;4174807;28;20665;-76
2022/05/06 05:02:41;;;;;;;3.40;3.10;;;19.90;99.90;;;;;;4175180;28;20277;-76
2022/05/06 05:04:43;;;;;;;3.33;3.03;;;19.90;99.90;;;;;;4174960;28;20220;-76
2022/05/06 05:06:46;;;;;;;3.20;2.90;;;20.00;99.90;;;;;;4175133;28;20224;-76
2022/05/06 05:08:48;;;;;;;2.78;2.58;;;19.90;99.90;;;;;;4175035;28;22008;-76
2022/05/06 05:10:51;;;;;;;3.50;3.20;;;19.90;99.90;;;;;;4175156;28;20224;-76
2022/05/06 05:12:53;;;;;;;3.00;2.47;;;19.90;99.90;;;;;;4175817;28;20220;-76
2022/05/06 05:14:57;;;;;;;4.18;3.20;;;19.90;99.90;;;;;;4175619;28;20259;-76
2022/05/06 05:16:59;;;;;;;3.03;2.83;;;20.00;99.90;;;;;;4175269;28;20559;-76
2022/05/06 05:19:01;;;;;;;3.05;2.83;;;19.90;99.90;;;;;;4175588;28;20227;-76
2022/05/06 05:21:04;;;;;;;3.10;2.70;;;19.90;99.90;;;;;;4175530;28;20223;-76
2022/05/06 05:23:06;;;;;;;3.22;2.92;;;20.00;99.90;;;;;;4175448;28;20258;-76
2022/05/06 05:25:10;;;;;;;3.08;2.80;;;19.90;99.90;;;;;;4175946;28;20277;-76
2022/05/06 05:27:13;;;;;;;3.22;2.92;;;20.00;99.90;;;;;;4174436;28;20241;-76
2022/05/06 05:29:15;;;;;;;2.72;2.53;;;19.90;99.90;;;;;;4175361;28;20606;-76
2022/05/06 05:31:19;;;;;;;2.90;2.70;;;19.90;99.90;;;;;;4175118;28;20262;-76
2022/05/06 05:33:21;;;;;;;3.38;3.08;;;20.00;99.90;;;;;;4175185;28;20824;-76
2022/05/06 05:35:24;;;;;;;3.25;2.95;;;20.00;99.90;;;;;;4175533;28;20278;-76
2022/05/06 05:37:27;;;;;;;3.20;2.90;;;20.00;99.90;;;;;;4173692;28;20220;-76
2022/05/06 05:39:31;;;;;;;3.35;3.05;;;20.00;99.90;;;;;;4174760;28;20281;-76
2022/05/06 05:41:33;;;;;;;2.90;2.70;;;19.90;99.90;;;;;;4175001;28;20244;-76
2022/05/06 05:48:40;;;;;;;3.22;2.92;;;20.00;99.90;;;;;;4087400;28;20276;-76
2022/05/06 05:50:43;;;;;;;2.60;2.40;;;20.00;99.90;;;;;;4138515;28;20223;-76
2022/05/06 05:52:46;;;;;;;3.25;2.95;;;20.00;99.90;;;;;;4175327;28;20215;-76
2022/05/06 05:54:48;;;;;;;2.92;2.72;;;19.90;99.90;;;;;;4174673;28;20224;-76
2022/05/06 05:56:51;;;;;;;4.00;2.50;;;19.90;99.90;;;;;;4175331;28;20238;-76
2022/05/06 05:58:53;;;;;;;2.83;2.42;;;19.90;99.90;;;;;;4175158;28;20223;-76
2022/05/06 06:00:56;;;;;;;2.83;2.53;;;19.90;99.90;;;;;;4175326;28;20228;-76
2022/05/06 06:02:59;;;;;;;2.60;2.40;;;19.90;99.90;;;;;;4175811;28;20293;-76
2022/05/06 06:05:03;;;;;;;3.28;2.97;;;19.90;99.90;;;;;;4175155;28;20328;-76
2022/05/06 06:07:06;;;;;;;2.83;2.63;;;19.90;99.90;;;;;;4174302;28;20220;-76
2022/05/06 06:09:08;;;;;;;2.63;2.42;;;19.90;99.90;;;;;;4174829;28;20216;-76
2022/05/06 06:11:10;;;;;;;3.10;2.80;;;19.90;99.90;;;;;;4177513;28;20224;-76
2022/05/06 06:13:13;;;;;;;2.53;2.33;;;19.90;99.90;;;;;;4178815;28;20216;-76
2022/05/06 06:15:16;;;;;;;2.80;2.60;;;19.90;99.90;;;;;;4177898;28;20216;-76
2022/05/06 06:17:18;;;;;;;3.47;3.17;;;20.00;99.90;;;;;;4177992;28;20261;-76
2022/05/06 06:19:21;;;;;;;2.75;2.55;;;20.00;99.90;;;;;;4178067;28;20224;-76
2022/05/06 06:21:24;;;;;;;3.05;2.75;;;20.00;99.90;;;;;;4178198;28;20224;-76
2022/05/06 06:23:27;;;;;;;2.70;2.50;;;19.90;99.90;;;;;;4177657;28;20239;-76
2022/05/06 06:25:29;;;;;;;3.03;2.78;;;20.00;99.90;;;;;;4178085;28;20273;-76
2022/05/06 06:27:34;;;;;;;3.13;2.83;;;20.00;99.90;;;;;;4178422;28;20220;-76
2022/05/06 06:29:36;;;;;;;3.22;3.00;;;20.00;99.90;;;;;;4178571;28;20293;-76
2022/05/06 06:31:39;;;;;;;2.80;2.60;;;20.00;99.90;;;;;;4177945;28;20223;-76
2022/05/06 06:33:41;;;;;;;3.17;2.88;;;20.00;99.90;;;;;;4178380;28;20228;-76
2022/05/06 06:35:43;;;;;;;3.20;2.90;;;20.00;99.90;;;;;;4177412;28;20266;-76
2022/05/06 06:37:47;;;;;;;3.38;3.08;;;20.00;99.90;;;;;;4176965;28;20270;-76
2022/05/06 06:39:49;;;;;;;3.78;3.47;;;20.00;99.90;;;;;;4178148;28;20216;-76
2022/05/06 06:41:52;;;;;;;3.53;3.22;;;20.00;99.90;;;;;;4177632;28;20236;-76
2022/05/06 06:43:56;;;;;;;3.63;3.33;;;20.00;99.90;;;;;;4178392;28;20216;-76
2022/05/06 06:45:58;;;;;;;3.85;2.95;;;20.00;99.90;;;;;;4177712;28;20649;-76
2022/05/06 06:48:01;;;;;;;3.28;2.97;;;20.00;99.90;;;;;;4178263;28;20270;-76
2022/05/06 06:50:03;;;;;;;3.65;3.35;;;20.10;99.90;;;;;;4178454;28;20261;-76
2022/05/06 06:52:06;;;;;;;5.47;4.97;;;20.10;99.90;;;;;;4176364;28;20301;-75
2022/05/06 06:54:10;;;;;;;11.82;8.80;;;20.00;99.90;;;;;;4175330;28;20231;-76
2022/05/06 06:56:12;;;;;;;7.90;6.18;;;19.70;99.90;;;;;;4174566;28;20273;-76
2022/05/06 06:58:14;;;;;;;6.35;5.72;;;19.70;99.90;;;;;;4177146;28;20277;-77
2022/05/06 07:00:18;;;;;;;5.78;4.32;;;19.70;99.90;;;;;;4173591;28;20293;-76
2022/05/06 07:02:21;;;;;;;5.13;4.15;;;19.80;99.90;;;;;;4174941;28;20642;-75
2022/05/06 07:04:23;;;;;;;5.85;4.18;;;19.90;99.90;;;;;;4181316;28;20239;-76
2022/05/06 07:13:28;;;;;;;3.40;3.10;;;20.20;99.90;;;;;;4195031;28;20203;-77
2022/05/06 07:15:31;;;;;;;3.88;3.47;;;20.30;99.90;;;;;;4193722;28;20223;-76
2022/05/06 07:17:34;;;;;;;4.47;3.70;;;20.30;99.90;;;;;;4211782;28;20279;-79
2022/05/06 07:19:36;;;;;;;6.13;3.38;;;20.30;99.90;;;;;;4211093;28;20268;-80
2022/05/06 07:21:38;;;;;;;4.00;3.35;;;20.40;99.90;;;;;;4211592;28;20211;-78
2022/05/06 07:23:41;;;;;;;3.65;3.25;;;20.30;99.90;;;;;;4210897;28;20314;-79
2022/05/06 07:25:43;;;;;;;5.28;3.85;;;20.40;99.90;;;;;;4209359;28;21125;-81
2022/05/06 07:27:47;;;;;;;4.40;3.45;;;20.20;99.90;;;;;;4205041;28;20218;-79
2022/05/06 07:29:49;;;;;;;3.90;3.38;;;20.30;99.90;;;;;;4205844;28;20271;-77
2022/05/06 07:31:52;;;;;;;5.13;4.03;;;20.30;99.90;;;;;;4208195;28;20264;-77
2022/05/06 07:33:55;;;;;;;4.28;3.88;;;20.30;99.90;;;;;;4210020;28;20211;-76
2022/05/06 07:35:57;;;;;;;3.30;3.00;;;20.30;99.90;;;;;;4207750;28;20279;-76
2022/05/06 07:37:59;;;;;;;3.30;3.00;;;20.40;99.90;;;;;;4210810;28;20222;-77
2022/05/06 07:40:03;;;;;;;3.75;3.30;;;20.40;99.90;;;;;;4210176;28;20222;-78
2022/05/06 07:42:05;;;;;;;3.58;3.28;;;20.50;99.90;;;;;;4211287;28;20223;-77
2022/05/06 07:44:09;;;;;;;4.00;3.60;;;20.60;99.90;;;;;;4209852;28;20250;-79
2022/05/06 07:46:13;;;;;;;4.18;3.65;;;20.60;99.90;;;;;;4211109;28;20226;-79
2022/05/06 07:48:16;;;;;;;5.47;3.47;;;20.60;99.90;;;;;;4208837;28;20237;-78
2022/05/06 07:50:20;;;;;;;3.95;3.50;;;20.50;99.90;;;;;;4209779;28;20240;-78
2022/05/06 07:52:23;;;;;;;3.88;3.25;;;20.60;99.90;;;;;;4210335;28;20222;-79
2022/05/06 07:54:25;;;;;;;4.35;3.42;;;20.60;99.90;;;;;;4209731;28;20222;-79
2022/05/06 07:56:31;;;;;;;3.55;3.15;;;20.70;99.90;;;;;;4210389;28;20252;-77
2022/05/06 07:58:34;;;;;;;5.72;3.95;;;20.70;99.90;;;;;;4209447;28;20247;-75
2022/05/06 08:00:40;;;;;;;5.38;4.07;;;20.70;99.90;;;;;;4205387;28;20218;-74
2022/05/06 08:05:02;;;;;;;5.35;3.72;;;20.80;99.90;;;;;;4205168;28;20238;-76
2022/05/06 08:07:06;;;;;;;5.80;3.70;;;20.80;99.90;;;;;;4206528;28;20206;-79
2022/05/06 08:09:09;;;;;;;6.47;3.33;;;20.70;99.90;;;;;;4204287;28;20218;-79
2022/05/06 08:11:11;;;;;;;5.45;3.28;;;20.80;99.90;;;;;;4209593;28;20218;-79
2022/05/06 08:13:14;;;;;;;3.33;3.03;;;20.80;99.90;;;;;;4205016;28;20218;-78
2022/05/06 08:15:16;;;;;;;6.97;3.28;;;20.80;99.90;;;;;;4199352;28;20604;-79
2022/05/06 08:17:20;;;;;;;6.07;3.30;;;20.80;99.90;;;;;;4205527;28;20333;-79
2022/05/06 08:19:23;;;;;;;5.82;3.72;;;20.80;99.90;;;;;;4205090;28;20636;-76
2022/05/06 08:21:25;;;;;;;5.97;3.63;;;20.60;99.90;;;;;;4206609;28;20226;-77
2022/05/06 08:23:28;;;;;;;6.32;3.88;;;20.50;99.90;;;;;;4204098;28;20223;-75
2022/05/06 08:25:30;;;;;;;12.98;4.80;;;20.60;99.90;;;;;;4207700;28;20264;-75
2022/05/06 08:27:36;;;;;;;6.82;5.05;;;20.80;99.90;;;;;;4205477;28;20622;-76
2022/05/06 08:29:40;;;;;;;5.22;4.57;;;20.80;99.90;;;;;;4205707;28;20219;-76
2022/05/06 08:31:42;;;;;;;5.50;4.40;;;20.90;99.90;;;;;;4205835;28;20256;-76
2022/05/06 08:33:46;;;;;;;6.18;4.13;;;21.00;99.90;;;;;;4201148;28;20241;-79
2022/05/06 08:35:48;;;;;;;4.55;4.13;;;21.00;99.90;;;;;;4204634;28;20222;-80
2022/05/06 08:37:50;;;;;;;4.25;3.85;;;21.00;99.90;;;;;;4206256;28;20218;-78
2022/05/06 08:39:53;;;;;;;5.93;4.25;;;21.00;99.90;;;;;;4208237;28;20589;-81
2022/05/06 08:41:58;;;;;;;4.75;3.88;;;21.00;99.90;;;;;;4210644;28;20851;-80
2022/05/06 08:50:50;;;;;;;6.75;4.05;;;21.00;99.90;;;;;;4204698;28;20284;-80
2022/05/06 08:51:31;;;;;;;5.30;4.30;;;21.10;99.90;;;;;;4208943;28;20214;-79
2022/05/06 08:53:37;;;;;;;5.68;4.80;;;21.10;99.90;;;;;;4202821;28;20561;-78
2022/05/06 08:55:39;;;;;;;7.20;3.63;;;21.20;99.90;;;;;;4207192;28;20291;-77
2022/05/06 08:57:42;;;;;;;6.70;4.25;;;21.10;99.90;;;;;;4207286;28;20719;-82
2022/05/06 08:59:49;;;;;;;5.07;4.57;;;21.10;99.90;;;;;;4206008;28;20581;-83
2022/05/06 09:01:52;;;;;;;5.88;4.90;;;21.20;99.90;;;;;;4207409;28;20221;-83
2022/05/06 09:03:56;;;;;;;4.80;4.13;;;21.20;99.90;;;;;;4202801;28;20239;-82
2022/05/06 09:05:59;;;;;;;4.72;4.13;;;21.20;99.90;;;;;;4207546;28;22270;-82
2022/05/06 09:08:03;;;;;;;5.40;4.63;;;21.20;99.90;;;;;;4199449;28;20237;-81
2022/05/06 09:10:14;;;;;;;5.03;4.53;;;21.20;99.90;;;;;;4205359;28;20259;-85
2022/05/06 09:12:44;;;;;;;5.53;4.40;;;21.30;99.90;;;;;;4209957;28;20219;-84
2022/05/06 09:17:19;;;;;;;6.40;4.63;;;21.30;99.90;;;;;;4204795;28;20210;-80
2022/05/06 09:19:25;;;;;;;6.03;4.30;;;21.30;99.90;;;;;;4208351;28;20299;-78
2022/05/06 09:21:28;;;;;;;5.90;3.63;;;21.30;99.90;;;;;;4206031;28;20244;-80
2022/05/06 09:23:31;;;;;;;6.75;4.63;;;21.20;99.90;;;;;;4206402;28;20234;-81
2022/05/06 09:25:42;;;;;;;4.65;3.85;;;21.10;99.90;;;;;;4203510;28;20222;-81
2022/05/06 09:27:54;;;;;;;6.45;5.40;;;21.20;99.90;;;;;;4208913;28;20222;-82
2022/05/06 09:29:57;;;;;;;6.60;4.97;;;21.30;99.90;;;;;;4210259;28;20221;-83
2022/05/06 09:32:32;;;;;;;5.47;4.55;;;21.30;99.90;;;;;;4209242;28;20505;-82
2022/05/06 09:34:36;;;;;;;7.60;4.10;;;21.20;99.90;;;;;;4171702;28;20668;-82
2022/05/06 09:36:40;;;;;;;4.43;3.97;;;21.10;99.90;;;;;;4193705;28;20238;-81
2022/05/06 09:39:01;;;;;;;5.72;4.25;;;21.20;99.90;;;;;;4210499;28;20628;-81
2022/05/06 09:41:21;;;;;;;4.55;3.78;;;21.20;99.90;;;;;;4208097;28;20222;-81
2022/05/06 09:43:26;;;;;;;5.05;4.20;;;21.30;99.90;;;;;;4200738;28;20218;-79
2022/05/06 09:45:33;;;;;;;4.35;3.92;;;21.40;99.90;;;;;;4209836;28;20215;-81
2022/05/06 09:47:36;;;;;;;5.00;3.85;;;21.30;99.90;;;;;;4212774;28;20254;-81
2022/05/06 09:49:41;;;;;;;6.80;4.53;;;21.40;99.90;;;;;;4214335;28;20214;-83
2022/05/06 09:51:44;;;;;;;5.78;4.53;;;21.30;99.90;;;;;;4212531;28;20232;-83
2022/05/06 09:53:47;;;;;;;5.30;4.45;;;21.40;99.90;;;;;;4214068;28;20218;-81
2022/05/06 09:55:49;;;;;;;8.20;5.22;;;21.40;99.90;;;;;;4209652;28;20286;-80
2022/05/06 09:57:55;;;;;;;6.10;4.40;;;21.40;99.90;;;;;;4212033;28;20215;-79
2022/05/06 09:59:57;;;;;;;5.45;4.80;;;21.40;99.90;;;;;;4213148;28;20283;-80
2022/05/06 10:02:00;;;;;;;5.50;4.75;;;21.40;99.90;;;;;;4210195;28;20230;-81
2022/05/06 10:04:02;;;;;;;5.35;4.50;;;21.40;99.90;;;;;;4211976;28;20285;-79
2022/05/06 10:06:09;;;;;;;6.43;4.60;;;21.40;99.90;;;;;;4209300;28;20244;-79
2022/05/06 10:08:15;;;;;;;8.98;4.95;;;21.40;99.90;;;;;;4207739;28;20214;-81
2022/05/06 10:10:21;;;;;;;6.85;4.28;;;21.40;99.90;;;;;;4210803;28;20651;-79
2022/05/06 10:12:25;;;;;;;5.90;4.20;;;21.40;99.90;;;;;;4214297;28;20230;-82
2022/05/06 10:14:27;;;;;;;5.25;4.28;;;21.30;99.90;;;;;;4211098;28;20259;-78
2022/05/06 10:16:35;;;;;;;4.75;4.18;;;21.30;99.90;;;;;;4209989;28;20267;-78
2022/05/06 10:18:38;;;;;;;7.03;4.47;;;21.40;99.90;;;;;;4211377;28;20210;-76
2022/05/06 10:21:00;;;;;;;4.63;4.22;;;21.40;99.90;;;;;;4209919;28;20311;-76
2022/05/06 10:23:07;;;;;;;5.78;4.47;;;21.40;99.90;;;;;;4210100;28;20215;-78
2022/05/06 10:25:09;;;;;;;5.60;4.30;;;21.40;99.90;;;;;;4209711;28;20984;-79
2022/05/06 10:32:28;;;;;;;4.65;4.25;;;21.40;99.90;;;;;;4209019;28;20222;-82
2022/05/06 10:34:31;;;;;;;6.55;4.60;;;21.40;99.90;;;;;;4210518;28;20222;-82
2022/05/06 10:36:43;;;;;;;4.60;3.97;;;21.40;99.90;;;;;;4209704;28;20636;-78
2022/05/06 10:38:49;;;;;;;4.65;4.20;;;21.40;99.90;;;;;;4210188;28;20244;-77
2022/05/06 10:40:54;;;;;;;4.82;4.13;;;21.40;99.90;;;;;;4211848;28;20214;-79
2022/05/06 10:42:56;;;;;;;4.55;3.80;;;21.40;99.90;;;;;;4206987;28;20287;-80
2022/05/06 10:44:59;;;;;;;4.50;4.10;;;21.50;99.90;;;;;;4210341;28;20280;-79
2022/05/06 10:47:01;;;;;;;5.68;4.03;;;21.40;99.90;;;;;;4209031;28;20267;-78
2022/05/06 10:49:40;;;;;;;4.38;3.95;;;21.30;99.90;;;;;;4209782;28;20234;-77
2022/05/06 10:51:43;;;;;;;3.92;3.58;;;21.40;99.90;;;;;;4201772;28;20222;-82
2022/05/06 10:53:47;;;;;;;5.38;4.22;;;21.40;99.90;;;;;;4210478;28;20223;-78
2022/05/06 10:55:50;;;;;;;6.32;3.92;;;21.40;99.90;;;;;;4207651;28;20268;-82
2022/05/06 10:58:07;;;;;;;3.90;3.50;;;21.30;99.90;;;;;;4209575;28;20267;-82
2022/05/06 11:00:11;;;;;;;5.57;4.10;;;21.30;99.90;;;;;;4207608;28;20218;-82
2022/05/06 11:02:14;;;;;;;5.70;3.80;;;21.40;99.90;;;;;;4211215;28;20226;-83
2022/05/06 11:04:18;;;;;;;5.93;3.70;;;21.50;99.90;;;;;;4210423;28;20376;-79
2022/05/06 11:06:21;;;;;;;4.70;3.97;;;21.50;99.90;;;;;;4208089;28;21114;-79
2022/05/06 11:08:34;;;;;;;4.95;3.83;;;21.40;99.90;;;;;;4207946;28;21096;-80
2022/05/06 11:10:37;;;;;;;5.47;4.00;;;21.40;99.90;;;;;;4206047;28;20210;-83
2022/05/06 11:12:41;;;;;;;5.57;3.42;;;21.40;99.90;;;;;;4205016;28;21049;-81
2022/05/06 11:14:45;;;;;;;11.15;5.45;;;21.50;99.90;;;;;;4209015;28;21276;-82
2022/05/06 11:16:47;;;;;;;7.45;5.18;;;21.50;99.90;;;;;;4204268;28;20211;-79
2022/05/06 11:18:50;;;;;;;9.50;4.38;;;21.50;99.90;;;;;;4208236;28;20263;-83
2022/05/06 11:20:53;;;;;;;5.45;4.18;;;21.50;99.90;;;;;;4202704;28;20293;-80
2022/05/06 11:22:58;;;;;;;9.73;4.80;;;21.40;99.90;;;;;;4203125;28;20227;-81
2022/05/06 11:25:01;;;;;;;8.05;4.75;;;21.40;99.90;;;;;;4203802;28;20238;-76